sensor_id;sensor_type;location;lat;lon;timestamp;P1;durP1;ratioP1;P2;durP2;ratioP2
58888;SDS011;44671;49.326;8.430;2023-07-29T00:00:25;2.88;;;1.30;;
58888;SDS011;44671;49.326;8.430;2023-07-29T00:02:51;1.27;;;1.15;;
58888;SDS011;44671;49.326;8.430;2023-07-29T00:05:17;1.60;;;1.10;;
58888;SDS011;44671;49.326;8.430;2023-07-29T00:07:42;1.35;;;1.20;;
58888;SDS011;44671;49.326;8.430;2023-07-29T00:10:07;1.92;;;1.23;;
58888;SDS011;44671;49.326;8.430;2023-07-29T00:12:33;2.22;;;1.27;;
58888;SDS011;44671;49.326;8.430;2023-07-29T00:14:58;2.03;;;1.27;;
58888;SDS011;44671;49.326;8.430;2023-07-29T00:17:24;1.52;;;1.30;;
58888;SDS011;44671;49.326;8.430;2023-07-29T00:19:49;1.88;;;1.30;;
58888;SDS011;44671;49.326;8.430;2023-07-29T00:22:14;1.42;;;1.23;;
58888;SDS011;44671;49.326;8.430;2023-07-29T00:24:40;3.08;;;1.38;;
58888;SDS011;44671;49.326;8.430;2023-07-29T00:27:06;1.90;;;1.30;;
58888;SDS011;44671;49.326;8.430;2023-07-29T00:29:32;2.92;;;1.38;;
58888;SDS011;44671;49.326;8.430;2023-07-29T00:31:57;1.25;;;1.08;;
58888;SDS011;44671;49.326;8.430;2023-07-29T00:34:22;1.48;;;1.15;;
58888;SDS011;44671;49.326;8.430;2023-07-29T00:36:48;1.42;;;1.27;;
58888;SDS011;44671;49.326;8.430;2023-07-29T00:39:13;1.30;;;1.13;;
58888;SDS011;44671;49.326;8.430;2023-07-29T00:41:39;1.30;;;1.20;;
58888;SDS011;44671;49.326;8.430;2023-07-29T00:44:04;1.20;;;1.10;;
58888;SDS011;44671;49.326;8.430;2023-07-29T00:46:30;0.85;;;0.82;;
58888;SDS011;44671;49.326;8.430;2023-07-29T00:48:58;1.40;;;1.30;;
58888;SDS011;44671;49.326;8.430;2023-07-29T00:51:23;1.10;;;1.10;;
58888;SDS011;44671;49.326;8.430;2023-07-29T00:53:49;1.30;;;1.20;;
58888;SDS011;44671;49.326;8.430;2023-07-29T00:56:14;1.25;;;1.15;;
58888;SDS011;44671;49.326;8.430;2023-07-29T00:58:39;1.52;;;1.30;;
58888;SDS011;44671;49.326;8.430;2023-07-29T01:01:05;1.48;;;1.38;;
58888;SDS011;44671;49.326;8.430;2023-07-29T01:03:30;1.40;;;1.30;;
58888;SDS011;44671;49.326;8.430;2023-07-29T01:06:01;1.40;;;1.27;;
58888;SDS011;44671;49.326;8.430;2023-07-29T01:08:36;1.60;;;1.40;;
58888;SDS011;44671;49.326;8.430;2023-07-29T01:11:08;1.08;;;1.08;;
58888;SDS011;44671;49.326;8.430;2023-07-29T01:13:53;2.53;;;1.20;;
58888;SDS011;44671;49.326;8.430;2023-07-29T01:16:23;1.27;;;1.17;;
58888;SDS011;44671;49.326;8.430;2023-07-29T01:18:52;0.80;;;0.80;;
58888;SDS011;44671;49.326;8.430;2023-07-29T01:21:19;1.40;;;1.30;;
58888;SDS011;44671;49.326;8.430;2023-07-29T01:23:45;1.98;;;1.42;;
58888;SDS011;44671;49.326;8.430;2023-07-29T01:26:10;1.00;;;1.00;;
58888;SDS011;44671;49.326;8.430;2023-07-29T01:28:36;1.20;;;1.10;;
58888;SDS011;44671;49.326;8.430;2023-07-29T01:31:03;1.40;;;1.30;;
58888;SDS011;44671;49.326;8.430;2023-07-29T01:33:51;1.15;;;1.05;;
58888;SDS011;44671;49.326;8.430;2023-07-29T01:36:21;1.38;;;1.13;;
58888;SDS011;44671;49.326;8.430;2023-07-29T01:38:51;1.27;;;1.13;;
58888;SDS011;44671;49.326;8.430;2023-07-29T01:41:17;1.10;;;1.00;;
58888;SDS011;44671;49.326;8.430;2023-07-29T01:43:43;1.30;;;1.20;;
58888;SDS011;44671;49.326;8.430;2023-07-29T01:46:15;1.38;;;1.27;;
58888;SDS011;44671;49.326;8.430;2023-07-29T01:48:40;1.33;;;1.08;;
58888;SDS011;44671;49.326;8.430;2023-07-29T01:51:06;1.20;;;1.02;;
58888;SDS011;44671;49.326;8.430;2023-07-29T01:53:32;1.20;;;1.13;;
58888;SDS011;44671;49.326;8.430;2023-07-29T01:55:57;1.00;;;1.00;;
58888;SDS011;44671;49.326;8.430;2023-07-29T01:58:23;1.10;;;1.00;;
58888;SDS011;44671;49.326;8.430;2023-07-29T02:00:48;1.40;;;0.90;;
58888;SDS011;44671;49.326;8.430;2023-07-29T02:03:14;2.10;;;1.58;;
58888;SDS011;44671;49.326;8.430;2023-07-29T02:05:39;0.85;;;0.85;;
58888;SDS011;44671;49.326;8.430;2023-07-29T02:08:05;1.10;;;0.90;;
58888;SDS011;44671;49.326;8.430;2023-07-29T02:10:30;1.02;;;1.02;;
58888;SDS011;44671;49.326;8.430;2023-07-29T02:12:56;1.20;;;1.10;;
58888;SDS011;44671;49.326;8.430;2023-07-29T02:15:21;1.98;;;1.30;;
58888;SDS011;44671;49.326;8.430;2023-07-29T02:17:46;1.20;;;1.10;;
58888;SDS011;44671;49.326;8.430;2023-07-29T02:20:12;1.20;;;1.10;;
58888;SDS011;44671;49.326;8.430;2023-07-29T02:22:37;1.10;;;1.10;;
58888;SDS011;44671;49.326;8.430;2023-07-29T02:25:02;1.00;;;0.90;;
58888;SDS011;44671;49.326;8.430;2023-07-29T02:27:28;1.10;;;1.10;;
58888;SDS011;44671;49.326;8.430;2023-07-29T02:29:53;1.17;;;1.08;;
58888;SDS011;44671;49.326;8.430;2023-07-29T02:32:19;1.25;;;1.15;;
58888;SDS011;44671;49.326;8.430;2023-07-29T02:34:45;1.83;;;1.10;;
58888;SDS011;44671;49.326;8.430;2023-07-29T02:37:10;1.75;;;1.65;;
58888;SDS011;44671;49.326;8.430;2023-07-29T02:39:36;1.30;;;1.20;;
58888;SDS011;44671;49.326;8.430;2023-07-29T02:42:01;1.13;;;1.02;;
58888;SDS011;44671;49.326;8.430;2023-07-29T02:44:27;1.17;;;1.05;;
58888;SDS011;44671;49.326;8.430;2023-07-29T02:46:52;1.00;;;1.00;;
58888;SDS011;44671;49.326;8.430;2023-07-29T02:49:19;1.15;;;1.05;;
58888;SDS011;44671;49.326;8.430;2023-07-29T02:51:44;1.48;;;1.38;;
58888;SDS011;44671;49.326;8.430;2023-07-29T02:54:10;1.00;;;1.00;;
58888;SDS011;44671;49.326;8.430;2023-07-29T02:56:35;1.42;;;1.10;;
58888;SDS011;44671;49.326;8.430;2023-07-29T02:59:00;1.05;;;1.00;;
58888;SDS011;44671;49.326;8.430;2023-07-29T03:01:26;2.22;;;1.30;;
58888;SDS011;44671;49.326;8.430;2023-07-29T03:03:52;3.13;;;1.10;;
58888;SDS011;44671;49.326;8.430;2023-07-29T03:06:17;2.22;;;1.38;;
58888;SDS011;44671;49.326;8.430;2023-07-29T03:08:43;1.00;;;1.00;;
58888;SDS011;44671;49.326;8.430;2023-07-29T03:11:09;1.55;;;1.05;;
58888;SDS011;44671;49.326;8.430;2023-07-29T03:13:36;1.08;;;0.98;;
58888;SDS011;44671;49.326;8.430;2023-07-29T03:16:08;1.42;;;1.00;;
58888;SDS011;44671;49.326;8.430;2023-07-29T03:18:35;0.82;;;0.82;;
58888;SDS011;44671;49.326;8.430;2023-07-29T03:21:01;1.25;;;1.17;;
58888;SDS011;44671;49.326;8.430;2023-07-29T03:23:27;1.13;;;1.02;;
58888;SDS011;44671;49.326;8.430;2023-07-29T03:25:57;0.95;;;0.95;;
58888;SDS011;44671;49.326;8.430;2023-07-29T03:28:27;2.00;;;1.25;;
58888;SDS011;44671;49.326;8.430;2023-07-29T03:30:57;1.13;;;0.82;;
58888;SDS011;44671;49.326;8.430;2023-07-29T03:33:23;0.90;;;0.90;;
58888;SDS011;44671;49.326;8.430;2023-07-29T03:35:49;1.33;;;1.23;;
58888;SDS011;44671;49.326;8.430;2023-07-29T03:38:14;0.85;;;0.73;;
58888;SDS011;44671;49.326;8.430;2023-07-29T03:40:40;1.27;;;1.10;;
58888;SDS011;44671;49.326;8.430;2023-07-29T03:43:06;1.13;;;1.02;;
58888;SDS011;44671;49.326;8.430;2023-07-29T03:45:31;1.67;;;1.13;;
58888;SDS011;44671;49.326;8.430;2023-07-29T03:47:57;0.80;;;0.80;;
58888;SDS011;44671;49.326;8.430;2023-07-29T03:50:22;1.17;;;1.08;;
58888;SDS011;44671;49.326;8.430;2023-07-29T03:52:49;0.82;;;0.82;;
58888;SDS011;44671;49.326;8.430;2023-07-29T03:55:14;0.93;;;0.85;;
58888;SDS011;44671;49.326;8.430;2023-07-29T03:57:39;1.13;;;1.13;;
58888;SDS011;44671;49.326;8.430;2023-07-29T04:00:05;0.95;;;0.95;;
58888;SDS011;44671;49.326;8.430;2023-07-29T04:02:31;1.13;;;1.05;;
58888;SDS011;44671;49.326;8.430;2023-07-29T04:04:56;0.95;;;0.95;;
58888;SDS011;44671;49.326;8.430;2023-07-29T04:07:21;1.77;;;1.17;;
58888;SDS011;44671;49.326;8.430;2023-07-29T04:09:47;1.00;;;1.00;;
58888;SDS011;44671;49.326;8.430;2023-07-29T04:12:12;1.25;;;1.15;;
58888;SDS011;44671;49.326;8.430;2023-07-29T04:14:37;1.23;;;1.13;;
58888;SDS011;44671;49.326;8.430;2023-07-29T04:17:03;0.90;;;0.90;;
58888;SDS011;44671;49.326;8.430;2023-07-29T04:19:29;0.98;;;0.93;;
58888;SDS011;44671;49.326;8.430;2023-07-29T04:21:54;1.10;;;1.00;;
58888;SDS011;44671;49.326;8.430;2023-07-29T04:24:19;3.05;;;0.98;;
58888;SDS011;44671;49.326;8.430;2023-07-29T04:26:45;0.80;;;0.80;;
58888;SDS011;44671;49.326;8.430;2023-07-29T04:29:11;1.55;;;1.00;;
58888;SDS011;44671;49.326;8.430;2023-07-29T04:31:36;0.70;;;0.70;;
58888;SDS011;44671;49.326;8.430;2023-07-29T04:34:02;1.20;;;1.10;;
58888;SDS011;44671;49.326;8.430;2023-07-29T04:36:27;1.05;;;1.05;;
58888;SDS011;44671;49.326;8.430;2023-07-29T04:38:53;1.17;;;1.08;;
58888;SDS011;44671;49.326;8.430;2023-07-29T04:41:18;2.63;;;1.00;;
58888;SDS011;44671;49.326;8.430;2023-07-29T04:43:43;1.52;;;1.10;;
58888;SDS011;44671;49.326;8.430;2023-07-29T04:46:09;0.95;;;0.90;;
58888;SDS011;44671;49.326;8.430;2023-07-29T04:48:34;0.70;;;0.70;;
58888;SDS011;44671;49.326;8.430;2023-07-29T04:50:59;0.88;;;0.88;;
58888;SDS011;44671;49.326;8.430;2023-07-29T04:53:25;1.25;;;1.15;;
58888;SDS011;44671;49.326;8.430;2023-07-29T04:55:50;0.98;;;0.90;;
58888;SDS011;44671;49.326;8.430;2023-07-29T04:58:15;1.02;;;1.00;;
58888;SDS011;44671;49.326;8.430;2023-07-29T05:00:41;0.90;;;0.90;;
58888;SDS011;44671;49.326;8.430;2023-07-29T05:03:06;1.08;;;1.02;;
58888;SDS011;44671;49.326;8.430;2023-07-29T05:05:32;0.90;;;0.90;;
58888;SDS011;44671;49.326;8.430;2023-07-29T05:07:57;1.08;;;1.08;;
58888;SDS011;44671;49.326;8.430;2023-07-29T05:10:22;1.17;;;1.10;;
58888;SDS011;44671;49.326;8.430;2023-07-29T05:12:48;1.55;;;0.95;;
58888;SDS011;44671;49.326;8.430;2023-07-29T05:15:13;1.20;;;1.10;;
58888;SDS011;44671;49.326;8.430;2023-07-29T05:17:39;1.10;;;0.98;;
58888;SDS011;44671;49.326;8.430;2023-07-29T05:20:05;1.00;;;1.00;;
58888;SDS011;44671;49.326;8.430;2023-07-29T05:22:31;1.27;;;1.17;;
58888;SDS011;44671;49.326;8.430;2023-07-29T05:24:56;1.10;;;1.00;;
58888;SDS011;44671;49.326;8.430;2023-07-29T05:27:22;1.38;;;1.02;;
58888;SDS011;44671;49.326;8.430;2023-07-29T05:29:47;0.95;;;0.95;;
58888;SDS011;44671;49.326;8.430;2023-07-29T05:32:12;0.95;;;0.90;;
58888;SDS011;44671;49.326;8.430;2023-07-29T05:34:38;1.00;;;1.00;;
58888;SDS011;44671;49.326;8.430;2023-07-29T05:37:03;1.17;;;1.00;;
58888;SDS011;44671;49.326;8.430;2023-07-29T05:39:29;1.38;;;1.05;;
58888;SDS011;44671;49.326;8.430;2023-07-29T05:41:55;2.65;;;1.08;;
58888;SDS011;44671;49.326;8.430;2023-07-29T05:44:20;1.10;;;1.00;;
58888;SDS011;44671;49.326;8.430;2023-07-29T05:46:46;1.58;;;0.95;;
58888;SDS011;44671;49.326;8.430;2023-07-29T05:49:12;0.90;;;0.90;;
58888;SDS011;44671;49.326;8.430;2023-07-29T05:51:37;1.35;;;1.10;;
58888;SDS011;44671;49.326;8.430;2023-07-29T05:54:03;0.93;;;0.90;;
58888;SDS011;44671;49.326;8.430;2023-07-29T05:56:29;1.27;;;1.15;;
58888;SDS011;44671;49.326;8.430;2023-07-29T05:58:56;0.88;;;0.88;;
58888;SDS011;44671;49.326;8.430;2023-07-29T06:01:21;0.90;;;0.90;;
58888;SDS011;44671;49.326;8.430;2023-07-29T06:03:47;0.88;;;0.82;;
58888;SDS011;44671;49.326;8.430;2023-07-29T06:06:12;1.75;;;1.40;;
58888;SDS011;44671;49.326;8.430;2023-07-29T06:08:38;1.27;;;1.08;;
58888;SDS011;44671;49.326;8.430;2023-07-29T06:11:03;1.20;;;1.10;;
58888;SDS011;44671;49.326;8.430;2023-07-29T06:13:31;1.20;;;0.90;;
58888;SDS011;44671;49.326;8.430;2023-07-29T06:15:57;1.13;;;1.00;;
58888;SDS011;44671;49.326;8.430;2023-07-29T06:18:22;1.05;;;1.02;;
58888;SDS011;44671;49.326;8.430;2023-07-29T06:20:47;1.08;;;0.98;;
58888;SDS011;44671;49.326;8.430;2023-07-29T06:23:13;1.17;;;1.10;;
58888;SDS011;44671;49.326;8.430;2023-07-29T06:25:38;1.02;;;1.00;;
58888;SDS011;44671;49.326;8.430;2023-07-29T06:28:03;1.13;;;1.02;;
58888;SDS011;44671;49.326;8.430;2023-07-29T06:30:29;1.10;;;1.00;;
58888;SDS011;44671;49.326;8.430;2023-07-29T06:32:55;0.95;;;0.95;;
58888;SDS011;44671;49.326;8.430;2023-07-29T06:35:20;1.85;;;1.05;;
58888;SDS011;44671;49.326;8.430;2023-07-29T06:37:46;1.23;;;1.13;;
58888;SDS011;44671;49.326;8.430;2023-07-29T06:40:11;1.73;;;1.10;;
58888;SDS011;44671;49.326;8.430;2023-07-29T06:42:37;1.98;;;1.00;;
58888;SDS011;44671;49.326;8.430;2023-07-29T06:45:03;1.20;;;1.10;;
58888;SDS011;44671;49.326;8.430;2023-07-29T06:47:29;1.50;;;1.10;;
58888;SDS011;44671;49.326;8.430;2023-07-29T06:49:55;1.17;;;1.08;;
58888;SDS011;44671;49.326;8.430;2023-07-29T06:52:20;1.08;;;0.98;;
58888;SDS011;44671;49.326;8.430;2023-07-29T06:54:45;1.23;;;1.10;;
58888;SDS011;44671;49.326;8.430;2023-07-29T06:57:11;1.75;;;0.77;;
58888;SDS011;44671;49.326;8.430;2023-07-29T06:59:36;1.08;;;0.77;;
58888;SDS011;44671;49.326;8.430;2023-07-29T07:02:02;1.00;;;1.00;;
58888;SDS011;44671;49.326;8.430;2023-07-29T07:04:27;1.20;;;1.10;;
58888;SDS011;44671;49.326;8.430;2023-07-29T07:06:53;1.10;;;1.00;;
58888;SDS011;44671;49.326;8.430;2023-07-29T07:09:19;0.98;;;0.88;;
58888;SDS011;44671;49.326;8.430;2023-07-29T07:11:44;1.52;;;1.40;;
58888;SDS011;44671;49.326;8.430;2023-07-29T07:14:09;0.93;;;0.82;;
58888;SDS011;44671;49.326;8.430;2023-07-29T07:16:35;1.25;;;1.20;;
58888;SDS011;44671;49.326;8.430;2023-07-29T07:19:02;1.55;;;1.45;;
58888;SDS011;44671;49.326;8.430;2023-07-29T07:21:27;1.40;;;1.20;;
58888;SDS011;44671;49.326;8.430;2023-07-29T07:23:53;2.15;;;1.20;;
58888;SDS011;44671;49.326;8.430;2023-07-29T07:26:18;1.40;;;1.30;;
58888;SDS011;44671;49.326;8.430;2023-07-29T07:28:43;1.20;;;1.10;;
58888;SDS011;44671;49.326;8.430;2023-07-29T07:31:09;1.30;;;1.20;;
58888;SDS011;44671;49.326;8.430;2023-07-29T07:33:34;1.90;;;0.90;;
58888;SDS011;44671;49.326;8.430;2023-07-29T07:36:00;1.60;;;1.30;;
58888;SDS011;44671;49.326;8.430;2023-07-29T07:38:25;1.40;;;1.30;;
58888;SDS011;44671;49.326;8.430;2023-07-29T07:40:56;1.30;;;0.90;;
58888;SDS011;44671;49.326;8.430;2023-07-29T07:43:22;1.02;;;1.00;;
58888;SDS011;44671;49.326;8.430;2023-07-29T07:45:48;1.33;;;1.20;;
58888;SDS011;44671;49.326;8.430;2023-07-29T07:48:13;1.50;;;1.40;;
58888;SDS011;44671;49.326;8.430;2023-07-29T07:50:39;1.23;;;1.13;;
58888;SDS011;44671;49.326;8.430;2023-07-29T07:53:04;1.33;;;1.20;;
58888;SDS011;44671;49.326;8.430;2023-07-29T07:55:30;1.33;;;1.00;;
58888;SDS011;44671;49.326;8.430;2023-07-29T07:57:55;1.52;;;1.15;;
58888;SDS011;44671;49.326;8.430;2023-07-29T08:00:21;2.50;;;1.83;;
58888;SDS011;44671;49.326;8.430;2023-07-29T08:02:46;3.78;;;1.70;;
58888;SDS011;44671;49.326;8.430;2023-07-29T08:05:11;22.20;;;6.00;;
58888;SDS011;44671;49.326;8.430;2023-07-29T08:07:37;21.40;;;7.47;;
58888;SDS011;44671;49.326;8.430;2023-07-29T08:10:02;8.32;;;2.80;;
58888;SDS011;44671;49.326;8.430;2023-07-29T08:12:28;2.05;;;1.50;;
58888;SDS011;44671;49.326;8.430;2023-07-29T08:14:53;1.75;;;1.40;;
58888;SDS011;44671;49.326;8.430;2023-07-29T08:17:18;2.05;;;1.65;;
58888;SDS011;44671;49.326;8.430;2023-07-29T08:19:44;3.88;;;1.65;;
58888;SDS011;44671;49.326;8.430;2023-07-29T08:22:09;3.97;;;1.77;;
58888;SDS011;44671;49.326;8.430;2023-07-29T08:24:34;4.25;;;2.17;;
58888;SDS011;44671;49.326;8.430;2023-07-29T08:27:00;3.60;;;1.80;;
58888;SDS011;44671;49.326;8.430;2023-07-29T08:29:25;3.55;;;2.10;;
58888;SDS011;44671;49.326;8.430;2023-07-29T08:31:51;3.60;;;1.77;;
58888;SDS011;44671;49.326;8.430;2023-07-29T08:34:16;5.20;;;1.88;;
58888;SDS011;44671;49.326;8.430;2023-07-29T08:36:42;2.58;;;1.63;;
58888;SDS011;44671;49.326;8.430;2023-07-29T08:39:07;6.28;;;1.67;;
58888;SDS011;44671;49.326;8.430;2023-07-29T08:41:36;2.75;;;1.40;;
58888;SDS011;44671;49.326;8.430;2023-07-29T08:46:38;3.35;;;1.80;;
58888;SDS011;44671;49.326;8.430;2023-07-29T08:49:04;3.33;;;2.00;;
58888;SDS011;44671;49.326;8.430;2023-07-29T08:51:30;2.10;;;1.80;;
58888;SDS011;44671;49.326;8.430;2023-07-29T08:53:56;3.58;;;2.10;;
58888;SDS011;44671;49.326;8.430;2023-07-29T08:56:23;1.75;;;1.50;;
58888;SDS011;44671;49.326;8.430;2023-07-29T08:58:49;3.65;;;1.80;;
58888;SDS011;44671;49.326;8.430;2023-07-29T09:01:14;1.75;;;1.45;;
58888;SDS011;44671;49.326;8.430;2023-07-29T09:03:41;1.92;;;1.60;;
58888;SDS011;44671;49.326;8.430;2023-07-29T09:06:06;1.95;;;1.27;;
58888;SDS011;44671;49.326;8.430;2023-07-29T09:08:32;2.90;;;1.65;;
58888;SDS011;44671;49.326;8.430;2023-07-29T09:10:58;4.15;;;1.58;;
58888;SDS011;44671;49.326;8.430;2023-07-29T09:13:24;3.08;;;1.90;;
58888;SDS011;44671;49.326;8.430;2023-07-29T09:15:52;2.47;;;1.67;;
58888;SDS011;44671;49.326;8.430;2023-07-29T09:20:48;4.22;;;1.73;;
58888;SDS011;44671;49.326;8.430;2023-07-29T09:23:15;3.10;;;1.50;;
58888;SDS011;44671;49.326;8.430;2023-07-29T09:25:40;2.03;;;1.42;;
58888;SDS011;44671;49.326;8.430;2023-07-29T09:28:10;2.60;;;1.50;;
58888;SDS011;44671;49.326;8.430;2023-07-29T09:30:39;3.72;;;1.75;;
58888;SDS011;44671;49.326;8.430;2023-07-29T09:33:06;2.05;;;1.50;;
58888;SDS011;44671;49.326;8.430;2023-07-29T09:35:32;4.35;;;1.70;;
58888;SDS011;44671;49.326;8.430;2023-07-29T09:37:58;2.20;;;1.63;;
58888;SDS011;44671;49.326;8.430;2023-07-29T09:40:24;2.50;;;1.60;;
58888;SDS011;44671;49.326;8.430;2023-07-29T09:42:50;3.00;;;1.67;;
58888;SDS011;44671;49.326;8.430;2023-07-29T09:45:20;2.50;;;1.35;;
58888;SDS011;44671;49.326;8.430;2023-07-29T09:47:49;2.40;;;1.98;;
58888;SDS011;44671;49.326;8.430;2023-07-29T09:50:15;9.10;;;1.60;;
58888;SDS011;44671;49.326;8.430;2023-07-29T09:52:41;24.83;;;3.08;;
58888;SDS011;44671;49.326;8.430;2023-07-29T09:55:07;8.23;;;1.77;;
58888;SDS011;44671;49.326;8.430;2023-07-29T09:57:32;8.88;;;1.63;;
58888;SDS011;44671;49.326;8.430;2023-07-29T09:59:59;7.95;;;2.00;;
58888;SDS011;44671;49.326;8.430;2023-07-29T10:02:25;9.40;;;2.00;;
58888;SDS011;44671;49.326;8.430;2023-07-29T10:04:53;3.60;;;1.47;;
58888;SDS011;44671;49.326;8.430;2023-07-29T10:07:19;3.70;;;1.63;;
58888;SDS011;44671;49.326;8.430;2023-07-29T10:09:45;1.73;;;1.40;;
58888;SDS011;44671;49.326;8.430;2023-07-29T10:12:11;4.75;;;1.60;;
58888;SDS011;44671;49.326;8.430;2023-07-29T10:14:37;2.75;;;1.40;;
58888;SDS011;44671;49.326;8.430;2023-07-29T10:17:03;7.28;;;1.65;;
58888;SDS011;44671;49.326;8.430;2023-07-29T10:19:30;6.20;;;1.80;;
58888;SDS011;44671;49.326;8.430;2023-07-29T10:21:56;6.22;;;1.60;;
58888;SDS011;44671;49.326;8.430;2023-07-29T10:26:54;4.47;;;1.55;;
58888;SDS011;44671;49.326;8.430;2023-07-29T10:29:22;2.63;;;1.20;;
58888;SDS011;44671;49.326;8.430;2023-07-29T10:31:48;1.63;;;1.42;;
58888;SDS011;44671;49.326;8.430;2023-07-29T10:34:18;2.75;;;1.30;;
58888;SDS011;44671;49.326;8.430;2023-07-29T10:36:45;2.97;;;1.42;;
58888;SDS011;44671;49.326;8.430;2023-07-29T10:39:10;2.95;;;1.48;;
58888;SDS011;44671;49.326;8.430;2023-07-29T10:42:09;2.85;;;1.75;;
58888;SDS011;44671;49.326;8.430;2023-07-29T10:47:14;2.83;;;1.42;;
58888;SDS011;44671;49.326;8.430;2023-07-29T10:49:40;1.77;;;1.50;;
58888;SDS011;44671;49.326;8.430;2023-07-29T10:52:08;3.90;;;1.33;;
58888;SDS011;44671;49.326;8.430;2023-07-29T10:54:47;2.67;;;1.30;;
58888;SDS011;44671;49.326;8.430;2023-07-29T10:57:30;3.03;;;1.80;;
58888;SDS011;44671;49.326;8.430;2023-07-29T10:59:59;2.42;;;1.30;;
58888;SDS011;44671;49.326;8.430;2023-07-29T11:02:44;2.97;;;1.58;;
58888;SDS011;44671;49.326;8.430;2023-07-29T11:05:21;2.83;;;1.70;;
58888;SDS011;44671;49.326;8.430;2023-07-29T11:07:47;4.85;;;1.50;;
58888;SDS011;44671;49.326;8.430;2023-07-29T11:10:13;2.70;;;1.40;;
58888;SDS011;44671;49.326;8.430;2023-07-29T11:17:40;5.38;;;1.60;;
58888;SDS011;44671;49.326;8.430;2023-07-29T11:20:15;2.28;;;1.58;;
58888;SDS011;44671;49.326;8.430;2023-07-29T11:22:41;2.60;;;1.42;;
58888;SDS011;44671;49.326;8.430;2023-07-29T11:25:08;2.92;;;1.73;;
58888;SDS011;44671;49.326;8.430;2023-07-29T11:27:34;3.85;;;1.27;;
58888;SDS011;44671;49.326;8.430;2023-07-29T11:30:01;4.15;;;1.48;;
58888;SDS011;44671;49.326;8.430;2023-07-29T11:32:30;3.17;;;1.52;;
58888;SDS011;44671;49.326;8.430;2023-07-29T11:34:55;3.10;;;1.70;;
58888;SDS011;44671;49.326;8.430;2023-07-29T11:37:21;3.63;;;1.40;;
58888;SDS011;44671;49.326;8.430;2023-07-29T11:39:47;2.55;;;1.30;;
58888;SDS011;44671;49.326;8.430;2023-07-29T11:42:13;3.50;;;1.48;;
58888;SDS011;44671;49.326;8.430;2023-07-29T11:44:39;1.73;;;1.20;;
58888;SDS011;44671;49.326;8.430;2023-07-29T11:47:08;1.50;;;1.30;;
58888;SDS011;44671;49.326;8.430;2023-07-29T11:49:34;3.30;;;1.52;;
58888;SDS011;44671;49.326;8.430;2023-07-29T11:52:00;1.63;;;1.45;;
58888;SDS011;44671;49.326;8.430;2023-07-29T11:54:26;3.72;;;1.50;;
58888;SDS011;44671;49.326;8.430;2023-07-29T11:56:51;3.58;;;1.40;;
58888;SDS011;44671;49.326;8.430;2023-07-29T11:59:17;3.53;;;1.50;;
58888;SDS011;44671;49.326;8.430;2023-07-29T12:01:42;2.40;;;1.48;;
58888;SDS011;44671;49.326;8.430;2023-07-29T12:04:08;2.33;;;1.73;;
58888;SDS011;44671;49.326;8.430;2023-07-29T12:06:34;1.75;;;1.48;;
58888;SDS011;44671;49.326;8.430;2023-07-29T12:08:59;7.30;;;1.45;;
58888;SDS011;44671;49.326;8.430;2023-07-29T12:11:25;4.93;;;1.60;;
58888;SDS011;44671;49.326;8.430;2023-07-29T12:13:52;7.83;;;1.90;;
58888;SDS011;44671;49.326;8.430;2023-07-29T12:16:18;12.00;;;1.77;;
58888;SDS011;44671;49.326;8.430;2023-07-29T12:18:44;9.55;;;2.13;;
58888;SDS011;44671;49.326;8.430;2023-07-29T12:21:09;3.72;;;1.42;;
58888;SDS011;44671;49.326;8.430;2023-07-29T12:23:34;2.35;;;1.83;;
58888;SDS011;44671;49.326;8.430;2023-07-29T12:26:00;4.82;;;1.60;;
58888;SDS011;44671;49.326;8.430;2023-07-29T12:28:26;4.10;;;1.73;;
58888;SDS011;44671;49.326;8.430;2023-07-29T12:30:55;2.53;;;1.35;;
58888;SDS011;44671;49.326;8.430;2023-07-29T12:33:34;2.28;;;1.25;;
58888;SDS011;44671;49.326;8.430;2023-07-29T12:36:01;2.60;;;1.92;;
58888;SDS011;44671;49.326;8.430;2023-07-29T12:38:27;2.45;;;1.52;;
58888;SDS011;44671;49.326;8.430;2023-07-29T12:40:53;8.75;;;2.05;;
58888;SDS011;44671;49.326;8.430;2023-07-29T12:43:18;3.10;;;1.80;;
58888;SDS011;44671;49.326;8.430;2023-07-29T12:45:44;2.47;;;1.83;;
58888;SDS011;44671;49.326;8.430;2023-07-29T12:48:10;2.03;;;1.50;;
58888;SDS011;44671;49.326;8.430;2023-07-29T12:50:35;1.83;;;1.60;;
58888;SDS011;44671;49.326;8.430;2023-07-29T12:53:01;3.65;;;1.63;;
58888;SDS011;44671;49.326;8.430;2023-07-29T12:55:26;5.30;;;1.55;;
58888;SDS011;44671;49.326;8.430;2023-07-29T12:57:52;3.97;;;1.60;;
58888;SDS011;44671;49.326;8.430;2023-07-29T13:00:17;4.40;;;2.05;;
58888;SDS011;44671;49.326;8.430;2023-07-29T13:02:43;4.05;;;1.50;;
58888;SDS011;44671;49.326;8.430;2023-07-29T13:05:11;2.78;;;1.27;;
58888;SDS011;44671;49.326;8.430;2023-07-29T13:07:40;4.25;;;1.75;;
58888;SDS011;44671;49.326;8.430;2023-07-29T13:10:05;3.10;;;1.70;;
58888;SDS011;44671;49.326;8.430;2023-07-29T13:12:32;2.25;;;1.52;;
58888;SDS011;44671;49.326;8.430;2023-07-29T13:14:57;3.55;;;1.60;;
58888;SDS011;44671;49.326;8.430;2023-07-29T13:17:23;2.13;;;1.55;;
58888;SDS011;44671;49.326;8.430;2023-07-29T13:19:48;1.70;;;1.50;;
58888;SDS011;44671;49.326;8.430;2023-07-29T13:22:14;3.55;;;1.50;;
58888;SDS011;44671;49.326;8.430;2023-07-29T13:24:39;1.85;;;1.42;;
58888;SDS011;44671;49.326;8.430;2023-07-29T13:27:04;1.83;;;1.73;;
58888;SDS011;44671;49.326;8.430;2023-07-29T13:29:30;3.47;;;1.20;;
58888;SDS011;44671;49.326;8.430;2023-07-29T13:31:55;2.80;;;1.50;;
58888;SDS011;44671;49.326;8.430;2023-07-29T13:34:20;2.45;;;1.48;;
58888;SDS011;44671;49.326;8.430;2023-07-29T13:36:46;1.92;;;1.45;;
58888;SDS011;44671;49.326;8.430;2023-07-29T13:39:12;4.63;;;1.70;;
58888;SDS011;44671;49.326;8.430;2023-07-29T13:41:37;3.20;;;1.75;;
58888;SDS011;44671;49.326;8.430;2023-07-29T13:44:02;5.93;;;1.60;;
58888;SDS011;44671;49.326;8.430;2023-07-29T13:46:28;1.73;;;1.60;;
58888;SDS011;44671;49.326;8.430;2023-07-29T13:48:53;3.50;;;1.60;;
58888;SDS011;44671;49.326;8.430;2023-07-29T13:51:18;2.65;;;1.38;;
58888;SDS011;44671;49.326;8.430;2023-07-29T13:53:44;1.33;;;1.23;;
58888;SDS011;44671;49.326;8.430;2023-07-29T13:56:09;2.03;;;1.60;;
58888;SDS011;44671;49.326;8.430;2023-07-29T13:58:34;2.03;;;1.50;;
58888;SDS011;44671;49.326;8.430;2023-07-29T14:01:00;4.47;;;1.67;;
58888;SDS011;44671;49.326;8.430;2023-07-29T14:03:25;3.35;;;1.55;;
58888;SDS011;44671;49.326;8.430;2023-07-29T14:05:50;2.00;;;1.25;;
58888;SDS011;44671;49.326;8.430;2023-07-29T14:08:16;3.65;;;1.40;;
58888;SDS011;44671;49.326;8.430;2023-07-29T14:10:41;1.30;;;1.15;;
58888;SDS011;44671;49.326;8.430;2023-07-29T14:13:06;3.40;;;1.70;;
58888;SDS011;44671;49.326;8.430;2023-07-29T14:15:32;4.00;;;1.80;;
58888;SDS011;44671;49.326;8.430;2023-07-29T14:17:57;2.47;;;1.42;;
58888;SDS011;44671;49.326;8.430;2023-07-29T14:20:23;2.72;;;1.42;;
58888;SDS011;44671;49.326;8.430;2023-07-29T14:22:48;3.92;;;1.60;;
58888;SDS011;44671;49.326;8.430;2023-07-29T14:25:14;4.88;;;1.75;;
58888;SDS011;44671;49.326;8.430;2023-07-29T14:27:40;1.42;;;1.30;;
58888;SDS011;44671;49.326;8.430;2023-07-29T14:30:05;2.00;;;1.45;;
58888;SDS011;44671;49.326;8.430;2023-07-29T14:32:31;1.58;;;1.48;;
58888;SDS011;44671;49.326;8.430;2023-07-29T14:34:57;2.35;;;1.52;;
58888;SDS011;44671;49.326;8.430;2023-07-29T14:37:22;2.53;;;1.42;;
58888;SDS011;44671;49.326;8.430;2023-07-29T14:39:47;4.65;;;1.50;;
58888;SDS011;44671;49.326;8.430;2023-07-29T14:42:13;3.70;;;1.48;;
58888;SDS011;44671;49.326;8.430;2023-07-29T14:44:40;1.92;;;1.48;;
58888;SDS011;44671;49.326;8.430;2023-07-29T14:47:05;1.85;;;1.40;;
58888;SDS011;44671;49.326;8.430;2023-07-29T14:49:32;2.75;;;1.95;;
58888;SDS011;44671;49.326;8.430;2023-07-29T14:51:57;4.70;;;1.60;;
58888;SDS011;44671;49.326;8.430;2023-07-29T14:54:23;3.20;;;1.45;;
58888;SDS011;44671;49.326;8.430;2023-07-29T14:56:48;3.95;;;1.40;;